Terminal Aerodrome Forecast
Issued by NWS Sterling, VA

Current Version | Previous Version | Text Only | Print | Product List | Glossary Off
Versions: 1 2 3 4 5 6 7 8 9 10 11 12 13 14 15 16 17 18 19

000
FTUS41 KLWX 271000 AAA
TAFMRB
TAF AMD
KMRB 271002Z 2710/2806 33013G20KT 5SM -SN BKN045 OVC070
     FM271300 33013G23KT P6SM OVC050
     FM271900 32012G20KT P6SM BKN070
     FM280100 31013KT P6SM SCT045=

USA.gov is the U.S. government's official web portal to all federal, state and local government web resources and services.